sensor_id;sensor_type;location;lat;lon;timestamp;temperature;humidity
52285;DHT22;38238;53.304;6.606;2022-07-29T00:01:46;15.00;99.90
52285;DHT22;38238;53.304;6.606;2022-07-29T00:04:12;15.00;99.90
52285;DHT22;38238;53.304;6.606;2022-07-29T00:06:38;15.00;99.90
52285;DHT22;38238;53.304;6.606;2022-07-29T00:09:04;14.90;99.90
52285;DHT22;38238;53.304;6.606;2022-07-29T00:11:29;15.20;99.90
52285;DHT22;38238;53.304;6.606;2022-07-29T00:13:55;15.00;99.90
52285;DHT22;38238;53.304;6.606;2022-07-29T00:16:21;15.20;99.90
52285;DHT22;38238;53.304;6.606;2022-07-29T00:18:46;15.10;99.90
52285;DHT22;38238;53.304;6.606;2022-07-29T00:21:12;15.10;99.90
52285;DHT22;38238;53.304;6.606;2022-07-29T00:23:38;15.10;99.90
52285;DHT22;38238;53.304;6.606;2022-07-29T00:26:03;15.10;99.90
52285;DHT22;38238;53.304;6.606;2022-07-29T00:28:29;15.10;99.90
52285;DHT22;38238;53.304;6.606;2022-07-29T00:30:55;15.10;99.90
52285;DHT22;38238;53.304;6.606;2022-07-29T00:33:20;15.10;99.90
52285;DHT22;38238;53.304;6.606;2022-07-29T00:35:47;15.10;99.90
52285;DHT22;38238;53.304;6.606;2022-07-29T00:38:18;15.10;99.90
52285;DHT22;38238;53.304;6.606;2022-07-29T00:40:44;15.10;99.90
52285;DHT22;38238;53.304;6.606;2022-07-29T00:43:11;15.10;99.90
52285;DHT22;38238;53.304;6.606;2022-07-29T00:45:37;15.10;99.90
52285;DHT22;38238;53.304;6.606;2022-07-29T00:48:03;15.20;99.90
52285;DHT22;38238;53.304;6.606;2022-07-29T00:50:31;15.20;99.90
52285;DHT22;38238;53.304;6.606;2022-07-29T00:52:57;15.20;99.90
52285;DHT22;38238;53.304;6.606;2022-07-29T00:55:23;15.20;99.90
52285;DHT22;38238;53.304;6.606;2022-07-29T00:57:49;15.20;99.90
52285;DHT22;38238;53.304;6.606;2022-07-29T01:00:21;15.20;99.90
52285;DHT22;38238;53.304;6.606;2022-07-29T01:02:47;15.20;99.90
52285;DHT22;38238;53.304;6.606;2022-07-29T01:05:24;15.20;99.90
52285;DHT22;38238;53.304;6.606;2022-07-29T01:07:52;15.30;99.90
52285;DHT22;38238;53.304;6.606;2022-07-29T01:10:19;15.30;99.90
52285;DHT22;38238;53.304;6.606;2022-07-29T01:12:48;15.30;99.90
52285;DHT22;38238;53.304;6.606;2022-07-29T01:15:14;15.30;99.90
52285;DHT22;38238;53.304;6.606;2022-07-29T01:23:13;15.30;99.90
52285;DHT22;38238;53.304;6.606;2022-07-29T01:26:21;15.30;99.90
52285;DHT22;38238;53.304;6.606;2022-07-29T01:29:18;15.30;99.90
52285;DHT22;38238;53.304;6.606;2022-07-29T01:31:55;15.40;99.90
52285;DHT22;38238;53.304;6.606;2022-07-29T01:34:24;15.40;99.90
52285;DHT22;38238;53.304;6.606;2022-07-29T01:36:57;15.30;99.90
52285;DHT22;38238;53.304;6.606;2022-07-29T01:39:30;15.40;99.90
52285;DHT22;38238;53.304;6.606;2022-07-29T01:42:20;15.30;99.90
52285;DHT22;38238;53.304;6.606;2022-07-29T01:45:06;15.30;99.90
52285;DHT22;38238;53.304;6.606;2022-07-29T01:50:17;15.30;99.90
52285;DHT22;38238;53.304;6.606;2022-07-29T01:52:46;15.30;99.90
52285;DHT22;38238;53.304;6.606;2022-07-29T01:55:16;15.30;99.90
52285;DHT22;38238;53.304;6.606;2022-07-29T01:57:45;15.30;99.90
52285;DHT22;38238;53.304;6.606;2022-07-29T02:00:12;15.30;99.90
52285;DHT22;38238;53.304;6.606;2022-07-29T02:02:41;15.30;99.90
52285;DHT22;38238;53.304;6.606;2022-07-29T02:05:10;15.30;99.90
52285;DHT22;38238;53.304;6.606;2022-07-29T02:07:37;15.30;99.90
52285;DHT22;38238;53.304;6.606;2022-07-29T02:10:04;15.30;99.90
52285;DHT22;38238;53.304;6.606;2022-07-29T02:12:32;15.30;99.90
52285;DHT22;38238;53.304;6.606;2022-07-29T02:15:00;15.30;99.90
52285;DHT22;38238;53.304;6.606;2022-07-29T02:17:32;15.30;99.90
52285;DHT22;38238;53.304;6.606;2022-07-29T02:20:00;15.30;99.90
52285;DHT22;38238;53.304;6.606;2022-07-29T02:22:29;15.30;99.90
52285;DHT22;38238;53.304;6.606;2022-07-29T02:24:55;15.20;99.90
52285;DHT22;38238;53.304;6.606;2022-07-29T02:27:24;15.20;99.90
52285;DHT22;38238;53.304;6.606;2022-07-29T02:29:51;15.20;99.90
52285;DHT22;38238;53.304;6.606;2022-07-29T02:32:18;15.20;99.90
52285;DHT22;38238;53.304;6.606;2022-07-29T02:34:46;15.20;99.90
52285;DHT22;38238;53.304;6.606;2022-07-29T02:37:12;15.20;99.90
52285;DHT22;38238;53.304;6.606;2022-07-29T02:39:41;15.20;99.90
52285;DHT22;38238;53.304;6.606;2022-07-29T02:42:11;15.30;99.90
52285;DHT22;38238;53.304;6.606;2022-07-29T02:44:38;15.20;99.90
52285;DHT22;38238;53.304;6.606;2022-07-29T02:47:20;15.20;99.90
52285;DHT22;38238;53.304;6.606;2022-07-29T02:49:57;15.20;99.90
52285;DHT22;38238;53.304;6.606;2022-07-29T02:58:03;15.20;99.90
52285;DHT22;38238;53.304;6.606;2022-07-29T03:00:34;15.10;99.90
52285;DHT22;38238;53.304;6.606;2022-07-29T03:03:04;15.10;99.90
52285;DHT22;38238;53.304;6.606;2022-07-29T03:05:32;15.10;99.90
52285;DHT22;38238;53.304;6.606;2022-07-29T03:08:02;15.10;99.90
52285;DHT22;38238;53.304;6.606;2022-07-29T03:10:29;15.10;99.90
52285;DHT22;38238;53.304;6.606;2022-07-29T03:12:56;15.10;99.90
52285;DHT22;38238;53.304;6.606;2022-07-29T03:15:23;15.10;99.90
52285;DHT22;38238;53.304;6.606;2022-07-29T03:17:51;15.10;99.90
52285;DHT22;38238;53.304;6.606;2022-07-29T03:20:17;15.10;99.90
52285;DHT22;38238;53.304;6.606;2022-07-29T03:22:44;15.10;99.90
52285;DHT22;38238;53.304;6.606;2022-07-29T03:25:18;15.10;99.90
52285;DHT22;38238;53.304;6.606;2022-07-29T03:27:45;15.10;99.90
52285;DHT22;38238;53.304;6.606;2022-07-29T03:30:12;15.10;99.90
52285;DHT22;38238;53.304;6.606;2022-07-29T03:32:39;15.00;99.90
52285;DHT22;38238;53.304;6.606;2022-07-29T03:35:05;15.00;99.90
52285;DHT22;38238;53.304;6.606;2022-07-29T03:37:33;15.00;99.90
52285;DHT22;38238;53.304;6.606;2022-07-29T03:40:00;15.00;99.90
52285;DHT22;38238;53.304;6.606;2022-07-29T03:42:32;15.00;99.90
52285;DHT22;38238;53.304;6.606;2022-07-29T03:45:01;15.00;99.90
52285;DHT22;38238;53.304;6.606;2022-07-29T03:47:29;15.00;99.90
52285;DHT22;38238;53.304;6.606;2022-07-29T03:50:00;15.00;99.90
52285;DHT22;38238;53.304;6.606;2022-07-29T03:52:26;15.00;99.90
52285;DHT22;38238;53.304;6.606;2022-07-29T03:54:53;15.00;99.90
52285;DHT22;38238;53.304;6.606;2022-07-29T03:57:21;15.00;99.90
52285;DHT22;38238;53.304;6.606;2022-07-29T03:59:49;15.00;99.90
52285;DHT22;38238;53.304;6.606;2022-07-29T04:02:16;15.00;99.90
52285;DHT22;38238;53.304;6.606;2022-07-29T04:04:42;15.00;99.90
52285;DHT22;38238;53.304;6.606;2022-07-29T04:07:12;15.00;99.90
52285;DHT22;38238;53.304;6.606;2022-07-29T04:09:38;15.00;99.90
52285;DHT22;38238;53.304;6.606;2022-07-29T04:12:04;15.10;99.90
52285;DHT22;38238;53.304;6.606;2022-07-29T04:14:31;15.10;99.90
52285;DHT22;38238;53.304;6.606;2022-07-29T04:16:57;15.10;99.90
52285;DHT22;38238;53.304;6.606;2022-07-29T04:19:23;15.00;99.90
52285;DHT22;38238;53.304;6.606;2022-07-29T04:21:49;15.10;99.90
52285;DHT22;38238;53.304;6.606;2022-07-29T04:24:14;15.10;99.90
52285;DHT22;38238;53.304;6.606;2022-07-29T04:26:40;15.10;99.90
52285;DHT22;38238;53.304;6.606;2022-07-29T04:29:06;15.10;99.90
52285;DHT22;38238;53.304;6.606;2022-07-29T04:31:31;15.20;99.90
52285;DHT22;38238;53.304;6.606;2022-07-29T04:33:57;15.20;99.90
52285;DHT22;38238;53.304;6.606;2022-07-29T04:36:23;15.20;99.90
52285;DHT22;38238;53.304;6.606;2022-07-29T04:38:48;15.30;99.90
52285;DHT22;38238;53.304;6.606;2022-07-29T04:41:14;15.30;99.90
52285;DHT22;38238;53.304;6.606;2022-07-29T04:43:40;15.30;99.90
52285;DHT22;38238;53.304;6.606;2022-07-29T04:46:06;15.40;99.90
52285;DHT22;38238;53.304;6.606;2022-07-29T04:48:32;15.40;99.90
52285;DHT22;38238;53.304;6.606;2022-07-29T04:50:58;15.40;99.90
52285;DHT22;38238;53.304;6.606;2022-07-29T04:53:24;15.40;99.90
52285;DHT22;38238;53.304;6.606;2022-07-29T04:55:50;15.40;99.90
52285;DHT22;38238;53.304;6.606;2022-07-29T04:58:15;15.40;99.90
52285;DHT22;38238;53.304;6.606;2022-07-29T05:00:41;15.40;99.90
52285;DHT22;38238;53.304;6.606;2022-07-29T05:03:07;15.50;99.90
52285;DHT22;38238;53.304;6.606;2022-07-29T05:05:32;15.50;99.90
52285;DHT22;38238;53.304;6.606;2022-07-29T05:07:58;15.50;99.90
52285;DHT22;38238;53.304;6.606;2022-07-29T05:10:24;15.50;99.90
52285;DHT22;38238;53.304;6.606;2022-07-29T05:12:50;15.50;99.90
52285;DHT22;38238;53.304;6.606;2022-07-29T05:15:16;15.50;99.90
52285;DHT22;38238;53.304;6.606;2022-07-29T05:17:43;15.50;99.90
52285;DHT22;38238;53.304;6.606;2022-07-29T05:20:09;15.50;99.90
52285;DHT22;38238;53.304;6.606;2022-07-29T05:22:35;15.50;99.90
52285;DHT22;38238;53.304;6.606;2022-07-29T05:25:01;15.60;99.90
52285;DHT22;38238;53.304;6.606;2022-07-29T05:27:27;15.60;99.90
52285;DHT22;38238;53.304;6.606;2022-07-29T05:29:53;15.60;99.90
52285;DHT22;38238;53.304;6.606;2022-07-29T05:32:18;15.60;99.90
52285;DHT22;38238;53.304;6.606;2022-07-29T05:34:44;15.60;99.90
52285;DHT22;38238;53.304;6.606;2022-07-29T05:37:10;15.60;99.90
52285;DHT22;38238;53.304;6.606;2022-07-29T05:39:36;15.60;99.90
52285;DHT22;38238;53.304;6.606;2022-07-29T05:42:02;15.60;99.90
52285;DHT22;38238;53.304;6.606;2022-07-29T05:44:27;15.70;99.90
52285;DHT22;38238;53.304;6.606;2022-07-29T05:46:53;15.70;99.90
52285;DHT22;38238;53.304;6.606;2022-07-29T05:49:19;15.80;99.90
52285;DHT22;38238;53.304;6.606;2022-07-29T05:51:45;15.80;99.90
52285;DHT22;38238;53.304;6.606;2022-07-29T05:54:11;15.90;99.90
52285;DHT22;38238;53.304;6.606;2022-07-29T05:56:36;16.00;99.90
52285;DHT22;38238;53.304;6.606;2022-07-29T05:59:02;16.00;99.90
52285;DHT22;38238;53.304;6.606;2022-07-29T06:01:28;16.10;99.90
52285;DHT22;38238;53.304;6.606;2022-07-29T06:03:54;16.10;99.90
52285;DHT22;38238;53.304;6.606;2022-07-29T06:06:20;16.20;99.90
52285;DHT22;38238;53.304;6.606;2022-07-29T06:08:45;16.30;99.90
52285;DHT22;38238;53.304;6.606;2022-07-29T06:11:11;16.40;99.90
52285;DHT22;38238;53.304;6.606;2022-07-29T06:13:37;16.40;99.90
52285;DHT22;38238;53.304;6.606;2022-07-29T06:16:03;16.50;99.90
52285;DHT22;38238;53.304;6.606;2022-07-29T06:18:29;16.50;99.90
52285;DHT22;38238;53.304;6.606;2022-07-29T06:20:55;16.60;99.90
52285;DHT22;38238;53.304;6.606;2022-07-29T06:23:21;16.60;99.90
52285;DHT22;38238;53.304;6.606;2022-07-29T06:25:47;16.70;99.90
52285;DHT22;38238;53.304;6.606;2022-07-29T06:28:14;16.70;99.90
52285;DHT22;38238;53.304;6.606;2022-07-29T06:30:40;16.70;99.90
52285;DHT22;38238;53.304;6.606;2022-07-29T06:33:06;16.80;99.90
52285;DHT22;38238;53.304;6.606;2022-07-29T06:35:35;16.80;99.90
52285;DHT22;38238;53.304;6.606;2022-07-29T06:38:02;16.80;99.90
52285;DHT22;38238;53.304;6.606;2022-07-29T06:40:28;16.80;99.90
52285;DHT22;38238;53.304;6.606;2022-07-29T06:43:13;16.90;99.90
52285;DHT22;38238;53.304;6.606;2022-07-29T06:45:38;16.90;99.90
52285;DHT22;38238;53.304;6.606;2022-07-29T06:48:06;17.10;99.90
52285;DHT22;38238;53.304;6.606;2022-07-29T06:50:32;17.00;99.90
52285;DHT22;38238;53.304;6.606;2022-07-29T06:52:57;17.10;99.90
52285;DHT22;38238;53.304;6.606;2022-07-29T06:55:23;17.10;99.90
52285;DHT22;38238;53.304;6.606;2022-07-29T06:57:50;17.10;99.90
52285;DHT22;38238;53.304;6.606;2022-07-29T07:00:16;17.20;99.90
52285;DHT22;38238;53.304;6.606;2022-07-29T07:02:42;17.30;99.90
52285;DHT22;38238;53.304;6.606;2022-07-29T07:05:08;17.30;99.90
52285;DHT22;38238;53.304;6.606;2022-07-29T07:07:34;17.50;99.90
52285;DHT22;38238;53.304;6.606;2022-07-29T07:09:59;17.50;99.90
52285;DHT22;38238;53.304;6.606;2022-07-29T07:12:25;17.60;99.90
52285;DHT22;38238;53.304;6.606;2022-07-29T07:14:51;17.70;99.90
52285;DHT22;38238;53.304;6.606;2022-07-29T07:17:16;17.70;99.90
52285;DHT22;38238;53.304;6.606;2022-07-29T07:19:42;17.80;99.90
52285;DHT22;38238;53.304;6.606;2022-07-29T07:22:08;17.90;99.90
52285;DHT22;38238;53.304;6.606;2022-07-29T07:24:33;17.90;99.90
52285;DHT22;38238;53.304;6.606;2022-07-29T07:26:59;18.00;99.90
52285;DHT22;38238;53.304;6.606;2022-07-29T07:29:24;18.00;99.90
52285;DHT22;38238;53.304;6.606;2022-07-29T07:31:50;18.10;99.90
52285;DHT22;38238;53.304;6.606;2022-07-29T07:34:16;18.20;99.90
52285;DHT22;38238;53.304;6.606;2022-07-29T07:36:41;18.20;99.90
52285;DHT22;38238;53.304;6.606;2022-07-29T07:39:07;18.30;99.90
52285;DHT22;38238;53.304;6.606;2022-07-29T07:41:33;18.30;99.90
52285;DHT22;38238;53.304;6.606;2022-07-29T07:43:58;18.30;99.90
52285;DHT22;38238;53.304;6.606;2022-07-29T07:46:24;18.30;99.90
52285;DHT22;38238;53.304;6.606;2022-07-29T07:48:50;18.40;99.90
52285;DHT22;38238;53.304;6.606;2022-07-29T07:51:17;18.40;99.90
52285;DHT22;38238;53.304;6.606;2022-07-29T07:53:43;18.40;99.90
52285;DHT22;38238;53.304;6.606;2022-07-29T07:56:10;18.40;99.90
52285;DHT22;38238;53.304;6.606;2022-07-29T07:58:35;18.40;99.90
52285;DHT22;38238;53.304;6.606;2022-07-29T08:01:02;18.40;99.90
52285;DHT22;38238;53.304;6.606;2022-07-29T08:03:27;18.50;99.90
52285;DHT22;38238;53.304;6.606;2022-07-29T08:05:53;18.50;99.90
52285;DHT22;38238;53.304;6.606;2022-07-29T08:08:19;18.60;99.90
52285;DHT22;38238;53.304;6.606;2022-07-29T08:10:45;18.60;99.90
52285;DHT22;38238;53.304;6.606;2022-07-29T08:13:17;18.70;99.90
52285;DHT22;38238;53.304;6.606;2022-07-29T08:15:43;18.70;99.90
52285;DHT22;38238;53.304;6.606;2022-07-29T08:18:11;18.80;99.90
52285;DHT22;38238;53.304;6.606;2022-07-29T08:20:37;18.80;99.90
52285;DHT22;38238;53.304;6.606;2022-07-29T08:23:07;18.90;99.90
52285;DHT22;38238;53.304;6.606;2022-07-29T08:25:36;18.90;99.90
52285;DHT22;38238;53.304;6.606;2022-07-29T08:28:01;19.00;99.90
52285;DHT22;38238;53.304;6.606;2022-07-29T08:30:27;19.10;99.90
52285;DHT22;38238;53.304;6.606;2022-07-29T08:32:53;19.20;99.90
52285;DHT22;38238;53.304;6.606;2022-07-29T08:35:19;19.20;99.80
52285;DHT22;38238;53.304;6.606;2022-07-29T08:37:45;19.30;99.70
52285;DHT22;38238;53.304;6.606;2022-07-29T08:40:11;19.40;99.50
52285;DHT22;38238;53.304;6.606;2022-07-29T08:42:37;19.50;99.30
52285;DHT22;38238;53.304;6.606;2022-07-29T08:45:04;19.50;99.30
52285;DHT22;38238;53.304;6.606;2022-07-29T08:47:30;19.60;99.30
52285;DHT22;38238;53.304;6.606;2022-07-29T08:49:56;19.70;99.30
52285;DHT22;38238;53.304;6.606;2022-07-29T08:52:25;19.70;99.30
52285;DHT22;38238;53.304;6.606;2022-07-29T08:54:52;19.80;99.30
52285;DHT22;38238;53.304;6.606;2022-07-29T08:57:19;19.90;98.90
52285;DHT22;38238;53.304;6.606;2022-07-29T08:59:46;19.90;98.90
52285;DHT22;38238;53.304;6.606;2022-07-29T09:02:19;19.90;98.70
52285;DHT22;38238;53.304;6.606;2022-07-29T09:04:45;19.90;98.70
52285;DHT22;38238;53.304;6.606;2022-07-29T09:07:14;19.90;98.70
52285;DHT22;38238;53.304;6.606;2022-07-29T09:09:41;19.90;98.60
52285;DHT22;38238;53.304;6.606;2022-07-29T09:12:07;19.90;98.50
52285;DHT22;38238;53.304;6.606;2022-07-29T09:14:33;19.90;98.60
52285;DHT22;38238;53.304;6.606;2022-07-29T09:16:59;19.90;98.70
52285;DHT22;38238;53.304;6.606;2022-07-29T09:19:30;19.90;98.70
52285;DHT22;38238;53.304;6.606;2022-07-29T09:21:58;19.90;98.70
52285;DHT22;38238;53.304;6.606;2022-07-29T09:24:36;20.00;98.60
52285;DHT22;38238;53.304;6.606;2022-07-29T09:27:20;20.00;98.50
52285;DHT22;38238;53.304;6.606;2022-07-29T09:29:47;20.00;98.40
52285;DHT22;38238;53.304;6.606;2022-07-29T09:32:13;20.10;98.60
52285;DHT22;38238;53.304;6.606;2022-07-29T09:34:38;20.10;98.30
52285;DHT22;38238;53.304;6.606;2022-07-29T09:37:04;20.10;98.30
52285;DHT22;38238;53.304;6.606;2022-07-29T09:42:02;20.00;98.20
52285;DHT22;38238;53.304;6.606;2022-07-29T09:44:45;20.00;98.20
52285;DHT22;38238;53.304;6.606;2022-07-29T09:47:11;19.90;98.20
52285;DHT22;38238;53.304;6.606;2022-07-29T09:49:56;19.90;98.30
52285;DHT22;38238;53.304;6.606;2022-07-29T09:52:29;19.90;98.40
52285;DHT22;38238;53.304;6.606;2022-07-29T09:55:05;20.00;98.40
52285;DHT22;38238;53.304;6.606;2022-07-29T09:57:31;20.10;98.30
52285;DHT22;38238;53.304;6.606;2022-07-29T10:02:33;20.10;98.10
52285;DHT22;38238;53.304;6.606;2022-07-29T10:05:01;20.10;98.10
52285;DHT22;38238;53.304;6.606;2022-07-29T10:07:43;20.10;98.10
52285;DHT22;38238;53.304;6.606;2022-07-29T10:10:09;20.10;98.10
52285;DHT22;38238;53.304;6.606;2022-07-29T10:15:16;20.20;98.20
52285;DHT22;38238;53.304;6.606;2022-07-29T10:17:43;20.30;98.10
52285;DHT22;38238;53.304;6.606;2022-07-29T10:20:09;20.30;97.80
52285;DHT22;38238;53.304;6.606;2022-07-29T10:22:36;20.40;98.00
52285;DHT22;38238;53.304;6.606;2022-07-29T10:25:02;20.40;97.80
52285;DHT22;38238;53.304;6.606;2022-07-29T10:27:28;20.40;97.60
52285;DHT22;38238;53.304;6.606;2022-07-29T10:29:54;20.40;97.70
52285;DHT22;38238;53.304;6.606;2022-07-29T10:43:43;20.40;97.70
52285;DHT22;38238;53.304;6.606;2022-07-29T10:46:10;20.40;97.80
52285;DHT22;38238;53.304;6.606;2022-07-29T10:52:00;20.40;97.80
52285;DHT22;38238;53.304;6.606;2022-07-29T10:54:37;20.40;97.80
52285;DHT22;38238;53.304;6.606;2022-07-29T10:59:50;20.40;98.00
52285;DHT22;38238;53.304;6.606;2022-07-29T11:07:35;20.60;98.10
52285;DHT22;38238;53.304;6.606;2022-07-29T11:15:09;20.60;98.00
52285;DHT22;38238;53.304;6.606;2022-07-29T11:20:42;20.70;97.90
52285;DHT22;38238;53.304;6.606;2022-07-29T11:23:29;20.70;97.80
52285;DHT22;38238;53.304;6.606;2022-07-29T11:26:17;20.70;97.70
52285;DHT22;38238;53.304;6.606;2022-07-29T11:31:40;20.80;97.70
52285;DHT22;38238;53.304;6.606;2022-07-29T11:34:22;20.80;97.70
52285;DHT22;38238;53.304;6.606;2022-07-29T11:39:42;20.90;97.70
52285;DHT22;38238;53.304;6.606;2022-07-29T11:50:14;21.10;97.80
52285;DHT22;38238;53.304;6.606;2022-07-29T11:52:46;21.10;97.70
52285;DHT22;38238;53.304;6.606;2022-07-29T11:55:16;21.20;97.80
52285;DHT22;38238;53.304;6.606;2022-07-29T11:57:49;21.20;97.80
52285;DHT22;38238;53.304;6.606;2022-07-29T12:00:46;21.30;97.80
52285;DHT22;38238;53.304;6.606;2022-07-29T12:03:27;21.40;97.70
52285;DHT22;38238;53.304;6.606;2022-07-29T12:05:53;21.60;97.80
52285;DHT22;38238;53.304;6.606;2022-07-29T12:08:20;21.70;97.70
52285;DHT22;38238;53.304;6.606;2022-07-29T12:10:49;21.90;97.70
52285;DHT22;38238;53.304;6.606;2022-07-29T12:13:17;22.10;97.80
52285;DHT22;38238;53.304;6.606;2022-07-29T12:15:52;22.40;97.60
52285;DHT22;38238;53.304;6.606;2022-07-29T12:18:19;22.60;97.20
52285;DHT22;38238;53.304;6.606;2022-07-29T12:20:46;22.80;96.70
52285;DHT22;38238;53.304;6.606;2022-07-29T12:23:13;23.00;96.60
52285;DHT22;38238;53.304;6.606;2022-07-29T12:25:40;23.30;96.30
52285;DHT22;38238;53.304;6.606;2022-07-29T12:28:09;23.50;95.90
52285;DHT22;38238;53.304;6.606;2022-07-29T12:30:40;23.60;95.70
52285;DHT22;38238;53.304;6.606;2022-07-29T12:35:45;23.70;95.30
52285;DHT22;38238;53.304;6.606;2022-07-29T12:38:12;23.80;95.10
52285;DHT22;38238;53.304;6.606;2022-07-29T12:40:38;23.80;94.90
52285;DHT22;38238;53.304;6.606;2022-07-29T12:43:17;24.00;94.70
52285;DHT22;38238;53.304;6.606;2022-07-29T12:45:46;23.90;94.40
52285;DHT22;38238;53.304;6.606;2022-07-29T12:48:13;24.00;94.50
52285;DHT22;38238;53.304;6.606;2022-07-29T12:50:57;24.10;94.60
52285;DHT22;38238;53.304;6.606;2022-07-29T12:53:25;24.20;94.10
52285;DHT22;38238;53.304;6.606;2022-07-29T12:55:54;24.40;94.30
52285;DHT22;38238;53.304;6.606;2022-07-29T13:03:51;24.30;93.80
52285;DHT22;38238;53.304;6.606;2022-07-29T13:06:37;24.30;93.70
52285;DHT22;38238;53.304;6.606;2022-07-29T13:11:52;24.30;93.80
52285;DHT22;38238;53.304;6.606;2022-07-29T13:14:34;24.40;93.60
52285;DHT22;38238;53.304;6.606;2022-07-29T13:17:19;24.50;93.50
52285;DHT22;38238;53.304;6.606;2022-07-29T13:20:03;24.60;93.60
52285;DHT22;38238;53.304;6.606;2022-07-29T13:22:29;24.70;93.30
52285;DHT22;38238;53.304;6.606;2022-07-29T13:24:58;24.90;93.30
52285;DHT22;38238;53.304;6.606;2022-07-29T13:27:27;25.10;93.00
52285;DHT22;38238;53.304;6.606;2022-07-29T13:29:54;25.20;92.90
52285;DHT22;38238;53.304;6.606;2022-07-29T13:32:22;25.30;92.90
52285;DHT22;38238;53.304;6.606;2022-07-29T13:34:48;25.40;92.70
52285;DHT22;38238;53.304;6.606;2022-07-29T13:37:14;25.50;92.70
52285;DHT22;38238;53.304;6.606;2022-07-29T13:39:40;25.60;92.90
52285;DHT22;38238;53.304;6.606;2022-07-29T13:42:06;25.70;92.50
52285;DHT22;38238;53.304;6.606;2022-07-29T13:44:33;25.80;92.40
52285;DHT22;38238;53.304;6.606;2022-07-29T13:46:58;25.80;92.20
52285;DHT22;38238;53.304;6.606;2022-07-29T13:49:25;25.80;91.90
52285;DHT22;38238;53.304;6.606;2022-07-29T13:51:51;25.90;92.00
52285;DHT22;38238;53.304;6.606;2022-07-29T13:54:17;26.00;92.30
52285;DHT22;38238;53.304;6.606;2022-07-29T13:56:43;26.20;91.70
52285;DHT22;38238;53.304;6.606;2022-07-29T13:59:08;26.30;91.70
52285;DHT22;38238;53.304;6.606;2022-07-29T14:01:35;26.40;91.60
52285;DHT22;38238;53.304;6.606;2022-07-29T14:04:00;26.60;91.10
52285;DHT22;38238;53.304;6.606;2022-07-29T14:06:26;26.60;90.60
52285;DHT22;38238;53.304;6.606;2022-07-29T14:08:52;26.60;90.60
52285;DHT22;38238;53.304;6.606;2022-07-29T14:11:18;26.70;90.40
52285;DHT22;38238;53.304;6.606;2022-07-29T14:13:44;26.70;90.50
52285;DHT22;38238;53.304;6.606;2022-07-29T14:16:10;26.70;90.60
52285;DHT22;38238;53.304;6.606;2022-07-29T14:18:36;26.70;90.10
52285;DHT22;38238;53.304;6.606;2022-07-29T14:21:02;26.70;90.20
52285;DHT22;38238;53.304;6.606;2022-07-29T14:23:28;26.80;89.60
52285;DHT22;38238;53.304;6.606;2022-07-29T14:25:54;26.80;89.00
52285;DHT22;38238;53.304;6.606;2022-07-29T14:28:19;26.90;89.40
52285;DHT22;38238;53.304;6.606;2022-07-29T14:30:45;26.90;88.80
52285;DHT22;38238;53.304;6.606;2022-07-29T14:33:11;26.90;88.90
52285;DHT22;38238;53.304;6.606;2022-07-29T14:35:37;27.00;88.40
52285;DHT22;38238;53.304;6.606;2022-07-29T14:38:03;27.00;87.80
52285;DHT22;38238;53.304;6.606;2022-07-29T14:40:29;27.10;88.10
52285;DHT22;38238;53.304;6.606;2022-07-29T14:42:54;27.10;87.80
52285;DHT22;38238;53.304;6.606;2022-07-29T14:45:20;27.10;87.60
52285;DHT22;38238;53.304;6.606;2022-07-29T14:47:45;27.20;87.10
52285;DHT22;38238;53.304;6.606;2022-07-29T14:50:11;27.10;87.40
52285;DHT22;38238;53.304;6.606;2022-07-29T14:52:37;27.20;87.90
52285;DHT22;38238;53.304;6.606;2022-07-29T14:55:04;27.20;87.50
52285;DHT22;38238;53.304;6.606;2022-07-29T14:57:29;27.30;86.80
52285;DHT22;38238;53.304;6.606;2022-07-29T14:59:55;27.30;86.30
52285;DHT22;38238;53.304;6.606;2022-07-29T15:02:21;27.30;86.60
52285;DHT22;38238;53.304;6.606;2022-07-29T15:04:47;27.30;85.80
52285;DHT22;38238;53.304;6.606;2022-07-29T15:07:14;27.30;85.80
52285;DHT22;38238;53.304;6.606;2022-07-29T15:09:40;27.30;86.20
52285;DHT22;38238;53.304;6.606;2022-07-29T15:12:06;27.30;85.70
52285;DHT22;38238;53.304;6.606;2022-07-29T15:14:32;27.30;85.50
52285;DHT22;38238;53.304;6.606;2022-07-29T15:16:58;27.30;85.70
52285;DHT22;38238;53.304;6.606;2022-07-29T15:19:24;27.30;86.20
52285;DHT22;38238;53.304;6.606;2022-07-29T15:21:49;27.40;85.70
52285;DHT22;38238;53.304;6.606;2022-07-29T15:24:16;27.40;85.40
52285;DHT22;38238;53.304;6.606;2022-07-29T15:26:42;27.40;84.90
52285;DHT22;38238;53.304;6.606;2022-07-29T15:29:08;27.30;85.20
52285;DHT22;38238;53.304;6.606;2022-07-29T15:31:34;27.30;85.30
52285;DHT22;38238;53.304;6.606;2022-07-29T15:34:00;27.30;85.00
52285;DHT22;38238;53.304;6.606;2022-07-29T15:36:25;27.20;85.10
52285;DHT22;38238;53.304;6.606;2022-07-29T15:38:52;27.20;85.40
52285;DHT22;38238;53.304;6.606;2022-07-29T15:41:19;27.10;85.10
52285;DHT22;38238;53.304;6.606;2022-07-29T15:43:45;27.00;85.30
52285;DHT22;38238;53.304;6.606;2022-07-29T15:46:17;26.90;85.40
52285;DHT22;38238;53.304;6.606;2022-07-29T15:49:02;26.80;85.60
52285;DHT22;38238;53.304;6.606;2022-07-29T15:51:28;26.70;85.60
52285;DHT22;38238;53.304;6.606;2022-07-29T15:53:53;26.60;85.80
52285;DHT22;38238;53.304;6.606;2022-07-29T15:56:19;26.50;86.20
52285;DHT22;38238;53.304;6.606;2022-07-29T15:58:45;26.40;86.20
52285;DHT22;38238;53.304;6.606;2022-07-29T16:01:11;26.20;86.30
52285;DHT22;38238;53.304;6.606;2022-07-29T16:03:37;26.00;86.70
52285;DHT22;38238;53.304;6.606;2022-07-29T16:06:02;25.90;87.00
52285;DHT22;38238;53.304;6.606;2022-07-29T16:08:28;25.80;88.10
52285;DHT22;38238;53.304;6.606;2022-07-29T16:10:54;25.70;88.30
52285;DHT22;38238;53.304;6.606;2022-07-29T16:13:20;25.60;88.40
52285;DHT22;38238;53.304;6.606;2022-07-29T16:15:46;25.50;88.80
52285;DHT22;38238;53.304;6.606;2022-07-29T16:18:11;25.50;89.00
52285;DHT22;38238;53.304;6.606;2022-07-29T16:20:38;25.40;89.40
52285;DHT22;38238;53.304;6.606;2022-07-29T16:23:04;25.40;89.10
52285;DHT22;38238;53.304;6.606;2022-07-29T16:25:30;25.40;88.90
52285;DHT22;38238;53.304;6.606;2022-07-29T16:27:56;25.40;88.80
52285;DHT22;38238;53.304;6.606;2022-07-29T16:30:21;25.40;88.90
52285;DHT22;38238;53.304;6.606;2022-07-29T16:32:47;25.30;88.80
52285;DHT22;38238;53.304;6.606;2022-07-29T16:35:13;25.30;88.80
52285;DHT22;38238;53.304;6.606;2022-07-29T16:37:39;25.30;89.20
52285;DHT22;38238;53.304;6.606;2022-07-29T16:40:06;25.20;89.20
52285;DHT22;38238;53.304;6.606;2022-07-29T16:42:32;25.20;89.50
52285;DHT22;38238;53.304;6.606;2022-07-29T16:44:58;25.20;89.00
52285;DHT22;38238;53.304;6.606;2022-07-29T16:47:24;25.10;88.40
52285;DHT22;38238;53.304;6.606;2022-07-29T16:49:50;25.10;87.80
52285;DHT22;38238;53.304;6.606;2022-07-29T16:52:16;25.00;87.70